Terminal Aerodrome Forecast
Issued by NWS Wilmington, NC

Home | Current Version | Previous Version | Text Only | Print | Product List | Glossary On
Versions: 1 2 3 4 5 6 7 8 9 10 11 12 13 14 15
000
FTUS42 KILM 010535
TAFFLO
TAF
KFLO 010535Z 0106/0206 VRB02KT P6SM SCT080
     FM011000 VRB02KT 4SM BR SCT006
     FM011300 01004KT P6SM SCT060
     FM011800 03005KT P6SM SCT060
      TEMPO 0118/0121 P6SM -TSRA BKN050CB
     FM012100 36007KT P6SM SCT060
     FM020000 18004KT P6SM SCT100=

USA.gov is the U.S. government's official web portal to all federal, state and local government web resources and services.